Station LMFS1 - Lake Murray SC Image indicating link to RSS feed of recent meteorological observations for station LMFS1


Conditions at LMFS1 as of
(4:20 am EDT)
0820 GMT on 06/14/2024:
     

Click on the graph icon in the table below to see a time series plot of the last five days of that observation.

5-day plot - Wind Speed Wind Speed (WSPD): 0 kts
5-day plot - Wind Gust Wind Gust (GST): 2 kts
5-day plot - Air Temperature Air Temperature (ATMP): 71.4 °F
5-day plot - Wind Speed at 10 Meters Wind Speed at 10 meters (WSPD10M): 2 kts
5-day plot - Wind Speed at 20 Meters Wind Speed at 20 meters (WSPD20M): 2 kts
5-day plot -  Wind Speed, Wind Gust and Atmospheric Pressure Combined plot of Wind Speed, Gust, and Air Pressure
Previous observations
TIME
(EDT)
5-day plot - Wind Direction
WDIR
 
5-day plot - Wind Speed
WSPD
kts
5-day plot - Wind Gust
GST
kts
5-day plot - Wave Height
WVHT
ft
5-day plot - Dominant Wave Period
DPD
sec
5-day plot - Average Wave Period
APD
sec
5-day plot - Mean Wave Direction
MWD
 
5-day plot - Atmospheric Pressure
PRES
in
5-day plot - Pressure Tendency
PTDY
in
5-day plot - Air Temperature
ATMP
°F
5-day plot - Water Temperature
WTMP
°F
5-day plot - Dew Point
DEWP
°F
5-day plot - Salinity
SAL
psu
5-day plot - Visibility
VIS
nmi
5-day plot - Tide (above MLLW)
TIDE
ft
2024-06-14 04:10 am- 0 0------ 72.0-----
2024-06-14 04:00 am- 0 2------ 72.3-----
2024-06-14 03:50 am- 0 1------ 72.9-----
2024-06-14 03:40 am- 0 0------ 73.6-----
2024-06-14 03:30 am- 0 0------ 73.8-----
2024-06-14 03:20 am- 0 0------ 73.9-----
2024-06-14 03:10 am- 0 0------ 74.7-----
2024-06-14 03:00 am- 0 2------ 75.6-----
2024-06-14 02:50 am E 2 3------ 76.5-----
2024-06-14 02:40 amESE 2 3------ 76.1-----
2024-06-14 02:30 am- 0 3------ 76.3-----
2024-06-14 02:20 amESE 3 4------ 76.3-----
2024-06-14 02:10 amESE 3 5------ 76.3-----
2024-06-14 02:00 am SE 3 6------ 76.6-----
2024-06-14 01:50 am SE 5 7------ 77.0-----
2024-06-14 01:40 amESE 3 6------ 77.2-----
2024-06-14 01:30 am SE 3 7------ 77.4-----
2024-06-14 01:20 am SE 3 5------ 77.4-----
2024-06-14 01:10 amESE 2 4------ 77.5-----
2024-06-14 01:00 amESE 2 4------ 77.5-----
2024-06-14 12:50 am SE 2 6------ 77.7-----
2024-06-14 12:40 amESE 2 5------ 77.9-----
2024-06-14 12:30 am SE 3 7------ 78.1-----
2024-06-14 12:20 am SE 4 6------ 78.3-----
2024-06-14 12:10 amESE 3 7------ 78.4-----
2024-06-14 12:00 amESE 3 6------ 78.8-----
2024-06-13 11:50 pmESE 3 4------ 79.0-----
2024-06-13 11:40 pmESE 4 6------ 79.2-----
2024-06-13 11:30 pm E 4 5------ 79.5-----
2024-06-13 11:20 pmESE 2 5------ 79.7-----
2024-06-13 11:10 pmESE 3 6------ 79.9-----
2024-06-13 11:00 pm SE 3 7------ 80.1-----
2024-06-13 10:50 pmESE 2 5------ 80.2-----
2024-06-13 10:40 pm E 3 7------ 80.8-----
2024-06-13 10:30 pm SE 3 7------ 81.1-----
2024-06-13 10:20 pmESE 3 5------ 81.1-----
2024-06-13 10:10 pm E 2 4------ 81.1-----
2024-06-13 10:00 pm- 0 6------ 81.5-----
2024-06-13 09:50 pm E 4 5------ 82.0-----
2024-06-13 09:40 pmESE 2 6------ 82.0-----
2024-06-13 09:30 pm E 5 6------ 82.4-----
2024-06-13 09:20 pm E 4 6------ 82.6-----
2024-06-13 09:10 pm E 2 4------ 83.1-----
2024-06-13 09:00 pm- 0 3------ 83.7-----
2024-06-13 08:50 pm- 0 2------ 83.8-----
2024-06-13 08:40 pm- 0 1------ 84.4-----
2024-06-13 08:30 pm- 0 2------ 84.9-----
2024-06-13 08:20 pm- 0 2------ 85.5-----
2024-06-13 08:10 pm- 0 3------ 86.5-----
2024-06-13 08:00 pm- 0 2------ 86.7-----
2024-06-13 07:50 pmENE 1 2------ 86.7-----
2024-06-13 07:40 pmENE 2 5------ 87.1-----
2024-06-13 07:30 pmENE 3 8------ 86.7-----
2024-06-13 07:20 pm E 7 11------ 86.7-----
2024-06-13 07:10 pm E 8 10------ 86.9-----
2024-06-13 07:00 pm E 5 7------ 87.3-----
2024-06-13 06:50 pm E 5 7------ 87.4-----
2024-06-13 06:40 pmENE 2 9------ 87.6-----
2024-06-13 06:30 pm E 6 8------ 87.4-----
2024-06-13 06:20 pm E 5 10------ 87.4-----
2024-06-13 06:10 pmENE 2 7------ 87.6-----
2024-06-13 06:00 pmENE 2 8------ 87.4-----
2024-06-13 05:50 pm E 5 12------ 86.9-----
2024-06-13 05:40 pm E 9 11------ 86.5-----
2024-06-13 05:30 pmENE 2 10------ 87.8-----
2024-06-13 05:20 pm E 4 7------ 87.6-----
2024-06-13 05:10 pm- 0 5------ 88.5-----
2024-06-13 05:00 pmENE 3 7------ 87.4-----
2024-06-13 04:50 pmENE 3 12------ 87.3-----
2024-06-13 04:40 pm NE 2 7------ 87.6-----
2024-06-13 04:30 pm E 8 11------ 86.7-----
2024-06-13 04:20 pmENE 6 10------ 86.9-----
2024-06-13 04:10 pm E 8 10------ 86.7-----
2024-06-13 04:00 pm E 3 7------ 87.4-----
2024-06-13 03:50 pmENE 3 12------ 86.9-----
2024-06-13 03:40 pmENE 3 11------ 86.7-----
2024-06-13 03:30 pm NE 3 8------ 86.9-----
2024-06-13 03:20 pmENE 3 11------ 86.0-----
2024-06-13 03:10 pmENE 2 7------ 86.5-----
2024-06-13 03:00 pm E 6 10------ 85.5-----
2024-06-13 02:50 pm E 6 16------ 85.5-----
2024-06-13 02:40 pm E 6 10------ 85.6-----
2024-06-13 02:30 pm NE 2 7------ 85.6-----
2024-06-13 02:20 pmENE 3 7------ 85.6-----
2024-06-13 02:10 pm NE 5 11------ 85.3-----
2024-06-13 02:00 pmENE 3 7------ 85.3-----
2024-06-13 01:50 pm NE 4 6------ 85.8-----
2024-06-13 01:40 pmENE 2 4------ 84.9-----
2024-06-13 01:30 pm E 2 7------ 84.9-----
2024-06-13 01:20 pm E 1 8------ 85.3-----
2024-06-13 01:10 pm NE 2 9------ 84.9-----
2024-06-13 01:00 pm NE 2 4------ 85.6-----
2024-06-13 12:50 pm NE 1 6------ 85.1-----
2024-06-13 12:40 pmENE 4 10------ 84.4-----
2024-06-13 12:30 pmENE 1 9------ 84.6-----
2024-06-13 12:20 pm E 5 8------ 83.5-----
2024-06-13 12:10 pm E 5 10------ 82.9-----
2024-06-13 12:00 pmENE 3 9------ 82.8-----
2024-06-13 11:50 am E 6 10------ 82.8-----
2024-06-13 11:40 am E 5 9------ 82.0-----
2024-06-13 11:30 am E 3 8------ 82.4-----
2024-06-13 11:20 am E 5 7------ 81.3-----
2024-06-13 11:10 amENE 3 9------ 81.1-----
2024-06-13 11:00 am E 5 8------ 80.8-----
2024-06-13 10:50 am E 5 7------ 80.4-----
2024-06-13 10:40 am E 6 7------ 79.9-----
2024-06-13 10:30 am E 2 6------ 80.8-----
2024-06-13 10:20 am E 5 7------ 79.3-----
2024-06-13 10:10 am E 2 7------ 79.2-----
2024-06-13 10:00 am E 7 9------ 78.1-----
2024-06-13 09:50 am E 5 7------ 78.3-----
2024-06-13 09:40 am- 0 4------ 78.6-----
2024-06-13 09:30 amENE 3 7------ 76.8-----
2024-06-13 09:20 amENE 3 6------ 76.6-----
2024-06-13 09:10 am E 2 8------ 76.3-----
2024-06-13 09:00 am E 5 8------ 75.7-----
2024-06-13 08:50 am- 0 4------ 76.3-----
2024-06-13 08:40 amNNE 2 4------ 75.6-----
2024-06-13 08:30 amNNE 2 3------ 74.7-----
2024-06-13 08:20 am- 0 3------ 73.4-----
2024-06-13 08:10 am NE 1 3------ 72.9-----
2024-06-13 08:00 am NE 1 2------ 72.1-----
2024-06-13 07:50 amENE 1 3------ 71.8-----
2024-06-13 07:40 am- 0 3------ 72.0-----
2024-06-13 07:30 amENE 2 3------ 71.8-----
2024-06-13 07:20 amENE 1 2------ 71.6-----
2024-06-13 07:10 am- 0 2------ 71.6-----
2024-06-13 07:00 am- 0 2------ 71.4-----
2024-06-13 06:50 am- 0 2------ 71.4-----
2024-06-13 06:40 am- 0 2------ 71.6-----
2024-06-13 06:30 am- 0 2------ 72.0-----
2024-06-13 06:20 am- 0 2------ 72.1-----
2024-06-13 06:10 am- 0 2------ 72.3-----
2024-06-13 06:00 am- 0 2------ 72.7-----
2024-06-13 05:50 am- 0 2------ 72.9-----
2024-06-13 05:40 am- 0 3------ 73.2-----
2024-06-13 05:30 am- 0 6------ 73.2-----
2024-06-13 05:20 amENE 1 4------ 73.4-----
2024-06-13 05:10 amENE 1 3------ 73.4-----
2024-06-13 05:00 amENE 1 5------ 73.6-----
2024-06-13 04:50 am- 0 2------ 73.8-----
2024-06-13 04:40 am- 0 5------ 73.9-----
2024-06-13 04:30 amENE 3 6------ 73.9-----
2024-06-13 04:20 am E 3 6------ 74.1-----
2024-06-13 04:10 am E 3 7------ 74.3-----
2024-06-13 04:00 am E 6 9------ 74.7-----
2024-06-13 03:50 am E 5 8------ 74.8-----